sensor_id;sensor_type;location;lat;lon;timestamp;temperature;humidity
67379;DHT22;54262;44.642;-0.974;2023-06-26T00:01:23;21.70;99.90
67379;DHT22;54262;44.642;-0.974;2023-06-26T00:03:49;21.70;99.90
67379;DHT22;54262;44.642;-0.974;2023-06-26T00:06:14;21.60;99.90
67379;DHT22;54262;44.642;-0.974;2023-06-26T00:08:40;21.80;99.90
67379;DHT22;54262;44.642;-0.974;2023-06-26T00:11:06;21.80;99.90
67379;DHT22;54262;44.642;-0.974;2023-06-26T00:13:32;21.70;99.90
67379;DHT22;54262;44.642;-0.974;2023-06-26T00:15:57;21.80;99.90
67379;DHT22;54262;44.642;-0.974;2023-06-26T00:18:25;21.40;99.90
67379;DHT22;54262;44.642;-0.974;2023-06-26T00:20:51;21.20;99.90
67379;DHT22;54262;44.642;-0.974;2023-06-26T00:23:18;21.60;99.90
67379;DHT22;54262;44.642;-0.974;2023-06-26T00:25:44;21.20;99.90
67379;DHT22;54262;44.642;-0.974;2023-06-26T00:28:12;21.40;99.90
67379;DHT22;54262;44.642;-0.974;2023-06-26T00:30:39;21.20;99.90
67379;DHT22;54262;44.642;-0.974;2023-06-26T00:33:05;21.20;99.90
67379;DHT22;54262;44.642;-0.974;2023-06-26T00:35:31;21.00;99.90
67379;DHT22;54262;44.642;-0.974;2023-06-26T00:37:56;20.70;99.90
67379;DHT22;54262;44.642;-0.974;2023-06-26T00:40:22;20.60;99.90
67379;DHT22;54262;44.642;-0.974;2023-06-26T00:42:48;20.60;99.90
67379;DHT22;54262;44.642;-0.974;2023-06-26T00:45:14;20.60;99.90
67379;DHT22;54262;44.642;-0.974;2023-06-26T00:47:39;20.50;99.90
67379;DHT22;54262;44.642;-0.974;2023-06-26T00:50:05;20.50;99.90
67379;DHT22;54262;44.642;-0.974;2023-06-26T00:52:32;20.30;99.90
67379;DHT22;54262;44.642;-0.974;2023-06-26T00:54:58;20.30;99.90
67379;DHT22;54262;44.642;-0.974;2023-06-26T00:57:24;20.20;99.90
67379;DHT22;54262;44.642;-0.974;2023-06-26T00:59:50;20.10;99.90
67379;DHT22;54262;44.642;-0.974;2023-06-26T01:02:16;20.20;99.90
67379;DHT22;54262;44.642;-0.974;2023-06-26T01:04:54;20.40;99.90
67379;DHT22;54262;44.642;-0.974;2023-06-26T01:07:21;20.40;99.90
67379;DHT22;54262;44.642;-0.974;2023-06-26T01:09:48;20.30;99.90
67379;DHT22;54262;44.642;-0.974;2023-06-26T01:12:14;20.30;99.90
67379;DHT22;54262;44.642;-0.974;2023-06-26T01:14:40;20.20;99.90
67379;DHT22;54262;44.642;-0.974;2023-06-26T01:17:07;20.20;99.90
67379;DHT22;54262;44.642;-0.974;2023-06-26T01:19:33;20.20;99.90
67379;DHT22;54262;44.642;-0.974;2023-06-26T01:27:55;20.40;99.90
67379;DHT22;54262;44.642;-0.974;2023-06-26T01:30:24;20.20;99.90
67379;DHT22;54262;44.642;-0.974;2023-06-26T01:32:53;20.10;99.90
67379;DHT22;54262;44.642;-0.974;2023-06-26T01:35:19;20.00;99.90
67379;DHT22;54262;44.642;-0.974;2023-06-26T01:37:45;19.90;99.90
67379;DHT22;54262;44.642;-0.974;2023-06-26T01:40:11;19.80;99.90
67379;DHT22;54262;44.642;-0.974;2023-06-26T01:42:36;19.80;99.90
67379;DHT22;54262;44.642;-0.974;2023-06-26T01:45:24;19.70;99.90
67379;DHT22;54262;44.642;-0.974;2023-06-26T01:47:51;19.70;99.90
67379;DHT22;54262;44.642;-0.974;2023-06-26T01:50:22;19.70;99.90
67379;DHT22;54262;44.642;-0.974;2023-06-26T01:58:14;19.40;99.90
67379;DHT22;54262;44.642;-0.974;2023-06-26T02:00:40;19.40;99.90
67379;DHT22;54262;44.642;-0.974;2023-06-26T02:03:06;19.30;99.90
67379;DHT22;54262;44.642;-0.974;2023-06-26T02:05:32;19.20;99.90
67379;DHT22;54262;44.642;-0.974;2023-06-26T02:07:58;19.30;99.90
67379;DHT22;54262;44.642;-0.974;2023-06-26T02:10:24;19.20;99.90
67379;DHT22;54262;44.642;-0.974;2023-06-26T02:12:49;19.20;99.90
67379;DHT22;54262;44.642;-0.974;2023-06-26T02:15:15;19.20;99.90
67379;DHT22;54262;44.642;-0.974;2023-06-26T02:17:44;19.20;99.90
67379;DHT22;54262;44.642;-0.974;2023-06-26T02:20:14;19.10;99.90
67379;DHT22;54262;44.642;-0.974;2023-06-26T02:22:39;19.00;99.90
67379;DHT22;54262;44.642;-0.974;2023-06-26T02:25:05;19.00;99.90
67379;DHT22;54262;44.642;-0.974;2023-06-26T02:27:31;19.00;99.90
67379;DHT22;54262;44.642;-0.974;2023-06-26T02:29:57;18.90;99.90
67379;DHT22;54262;44.642;-0.974;2023-06-26T02:32:25;18.80;99.90
67379;DHT22;54262;44.642;-0.974;2023-06-26T02:34:53;18.80;99.90
67379;DHT22;54262;44.642;-0.974;2023-06-26T02:37:19;18.70;99.90
67379;DHT22;54262;44.642;-0.974;2023-06-26T02:39:45;18.80;99.90
67379;DHT22;54262;44.642;-0.974;2023-06-26T02:42:10;18.80;99.90
67379;DHT22;54262;44.642;-0.974;2023-06-26T02:44:36;18.80;99.90
67379;DHT22;54262;44.642;-0.974;2023-06-26T02:47:02;18.80;99.90
67379;DHT22;54262;44.642;-0.974;2023-06-26T02:49:28;18.70;99.90
67379;DHT22;54262;44.642;-0.974;2023-06-26T02:51:54;18.70;99.90
67379;DHT22;54262;44.642;-0.974;2023-06-26T02:54:20;18.70;99.90
67379;DHT22;54262;44.642;-0.974;2023-06-26T02:56:45;18.80;99.90
67379;DHT22;54262;44.642;-0.974;2023-06-26T02:59:11;18.80;99.90
67379;DHT22;54262;44.642;-0.974;2023-06-26T03:01:37;18.80;99.90
67379;DHT22;54262;44.642;-0.974;2023-06-26T03:04:03;18.90;99.90
67379;DHT22;54262;44.642;-0.974;2023-06-26T03:06:32;19.00;99.90
67379;DHT22;54262;44.642;-0.974;2023-06-26T03:08:58;19.00;99.90
67379;DHT22;54262;44.642;-0.974;2023-06-26T03:11:23;19.00;99.90
67379;DHT22;54262;44.642;-0.974;2023-06-26T03:13:49;19.10;99.90
67379;DHT22;54262;44.642;-0.974;2023-06-26T03:16:14;19.10;99.90
67379;DHT22;54262;44.642;-0.974;2023-06-26T03:18:40;19.10;99.90
67379;DHT22;54262;44.642;-0.974;2023-06-26T03:21:06;19.10;99.90
67379;DHT22;54262;44.642;-0.974;2023-06-26T03:23:31;19.20;99.90
67379;DHT22;54262;44.642;-0.974;2023-06-26T03:25:57;19.10;99.90
67379;DHT22;54262;44.642;-0.974;2023-06-26T03:28:23;19.10;99.90
67379;DHT22;54262;44.642;-0.974;2023-06-26T03:30:48;19.20;99.90
67379;DHT22;54262;44.642;-0.974;2023-06-26T03:33:16;19.20;99.90
67379;DHT22;54262;44.642;-0.974;2023-06-26T03:35:44;19.20;99.90
67379;DHT22;54262;44.642;-0.974;2023-06-26T03:38:10;19.20;99.90
67379;DHT22;54262;44.642;-0.974;2023-06-26T03:40:35;19.30;99.90
67379;DHT22;54262;44.642;-0.974;2023-06-26T03:43:01;19.30;99.90
67379;DHT22;54262;44.642;-0.974;2023-06-26T03:45:27;19.30;99.90
67379;DHT22;54262;44.642;-0.974;2023-06-26T03:47:52;19.40;99.90
67379;DHT22;54262;44.642;-0.974;2023-06-26T03:50:18;19.50;99.90
67379;DHT22;54262;44.642;-0.974;2023-06-26T03:52:44;19.50;99.90
67379;DHT22;54262;44.642;-0.974;2023-06-26T03:55:11;19.50;99.90
67379;DHT22;54262;44.642;-0.974;2023-06-26T03:57:36;19.40;99.90
67379;DHT22;54262;44.642;-0.974;2023-06-26T04:00:03;19.40;99.90
67379;DHT22;54262;44.642;-0.974;2023-06-26T04:02:34;19.30;99.90
67379;DHT22;54262;44.642;-0.974;2023-06-26T04:05:00;19.20;99.90
67379;DHT22;54262;44.642;-0.974;2023-06-26T04:07:26;19.10;99.90
67379;DHT22;54262;44.642;-0.974;2023-06-26T04:09:52;19.20;99.90
67379;DHT22;54262;44.642;-0.974;2023-06-26T04:12:21;19.10;99.90
67379;DHT22;54262;44.642;-0.974;2023-06-26T04:14:46;19.00;99.90
67379;DHT22;54262;44.642;-0.974;2023-06-26T04:17:12;19.00;99.90
67379;DHT22;54262;44.642;-0.974;2023-06-26T04:19:37;19.00;99.90
67379;DHT22;54262;44.642;-0.974;2023-06-26T04:22:03;18.90;99.90
67379;DHT22;54262;44.642;-0.974;2023-06-26T04:24:29;18.80;99.90
67379;DHT22;54262;44.642;-0.974;2023-06-26T04:26:55;18.80;99.90
67379;DHT22;54262;44.642;-0.974;2023-06-26T04:29:23;18.80;99.90
67379;DHT22;54262;44.642;-0.974;2023-06-26T04:31:51;18.80;99.90
67379;DHT22;54262;44.642;-0.974;2023-06-26T04:34:19;18.90;99.90
67379;DHT22;54262;44.642;-0.974;2023-06-26T04:36:47;18.90;99.90
67379;DHT22;54262;44.642;-0.974;2023-06-26T04:39:14;19.00;99.90
67379;DHT22;54262;44.642;-0.974;2023-06-26T04:41:42;19.10;99.90
67379;DHT22;54262;44.642;-0.974;2023-06-26T04:44:08;19.10;99.90
67379;DHT22;54262;44.642;-0.974;2023-06-26T04:46:34;19.10;99.90
67379;DHT22;54262;44.642;-0.974;2023-06-26T04:48:59;19.00;99.90
67379;DHT22;54262;44.642;-0.974;2023-06-26T04:51:26;19.00;99.90
67379;DHT22;54262;44.642;-0.974;2023-06-26T04:53:52;19.10;99.90
67379;DHT22;54262;44.642;-0.974;2023-06-26T04:56:18;19.10;99.90
67379;DHT22;54262;44.642;-0.974;2023-06-26T04:58:44;19.20;99.90
67379;DHT22;54262;44.642;-0.974;2023-06-26T05:01:09;19.20;99.90
67379;DHT22;54262;44.642;-0.974;2023-06-26T05:03:35;19.30;99.90
67379;DHT22;54262;44.642;-0.974;2023-06-26T05:06:02;19.30;99.90
67379;DHT22;54262;44.642;-0.974;2023-06-26T05:08:27;19.40;99.90
67379;DHT22;54262;44.642;-0.974;2023-06-26T05:10:53;19.40;99.90
67379;DHT22;54262;44.642;-0.974;2023-06-26T05:13:23;19.40;99.90
67379;DHT22;54262;44.642;-0.974;2023-06-26T05:15:49;19.50;99.90
67379;DHT22;54262;44.642;-0.974;2023-06-26T05:18:14;19.50;99.90
67379;DHT22;54262;44.642;-0.974;2023-06-26T05:20:40;19.60;99.90
67379;DHT22;54262;44.642;-0.974;2023-06-26T05:23:06;19.60;99.90
67379;DHT22;54262;44.642;-0.974;2023-06-26T05:25:33;19.60;99.90
67379;DHT22;54262;44.642;-0.974;2023-06-26T05:28:02;19.80;99.90
67379;DHT22;54262;44.642;-0.974;2023-06-26T05:30:30;19.90;99.90
67379;DHT22;54262;44.642;-0.974;2023-06-26T05:32:59;19.90;99.90
67379;DHT22;54262;44.642;-0.974;2023-06-26T05:35:29;19.90;99.90
67379;DHT22;54262;44.642;-0.974;2023-06-26T05:37:57;20.00;99.90
67379;DHT22;54262;44.642;-0.974;2023-06-26T05:40:24;20.00;99.90
67379;DHT22;54262;44.642;-0.974;2023-06-26T05:42:50;19.90;99.90
67379;DHT22;54262;44.642;-0.974;2023-06-26T05:45:16;19.90;99.90
67379;DHT22;54262;44.642;-0.974;2023-06-26T05:47:42;19.90;99.90
67379;DHT22;54262;44.642;-0.974;2023-06-26T05:50:09;19.80;99.90
67379;DHT22;54262;44.642;-0.974;2023-06-26T05:52:35;19.90;99.90
67379;DHT22;54262;44.642;-0.974;2023-06-26T05:55:02;20.30;99.90
67379;DHT22;54262;44.642;-0.974;2023-06-26T05:57:29;20.30;99.90
67379;DHT22;54262;44.642;-0.974;2023-06-26T05:59:55;20.90;99.90
67379;DHT22;54262;44.642;-0.974;2023-06-26T06:02:21;20.60;99.90
67379;DHT22;54262;44.642;-0.974;2023-06-26T06:04:47;20.90;99.90
67379;DHT22;54262;44.642;-0.974;2023-06-26T06:07:13;21.60;99.90
67379;DHT22;54262;44.642;-0.974;2023-06-26T06:09:39;21.10;99.90
67379;DHT22;54262;44.642;-0.974;2023-06-26T06:12:05;20.60;99.90
67379;DHT22;54262;44.642;-0.974;2023-06-26T06:14:32;20.30;99.90
67379;DHT22;54262;44.642;-0.974;2023-06-26T06:16:58;20.30;99.90
67379;DHT22;54262;44.642;-0.974;2023-06-26T06:19:23;20.40;99.90
67379;DHT22;54262;44.642;-0.974;2023-06-26T06:21:49;21.60;99.90
67379;DHT22;54262;44.642;-0.974;2023-06-26T06:24:15;23.00;99.90
67379;DHT22;54262;44.642;-0.974;2023-06-26T06:26:40;22.60;99.90
67379;DHT22;54262;44.642;-0.974;2023-06-26T06:29:06;22.00;99.90
67379;DHT22;54262;44.642;-0.974;2023-06-26T06:31:32;21.40;99.90
67379;DHT22;54262;44.642;-0.974;2023-06-26T06:33:58;22.30;99.90
67379;DHT22;54262;44.642;-0.974;2023-06-26T06:36:26;22.30;99.90
67379;DHT22;54262;44.642;-0.974;2023-06-26T06:38:55;22.90;99.90
67379;DHT22;54262;44.642;-0.974;2023-06-26T06:41:21;23.00;99.90
67379;DHT22;54262;44.642;-0.974;2023-06-26T06:43:46;23.60;99.90
67379;DHT22;54262;44.642;-0.974;2023-06-26T06:46:12;24.20;99.90
67379;DHT22;54262;44.642;-0.974;2023-06-26T06:48:38;23.40;99.90
67379;DHT22;54262;44.642;-0.974;2023-06-26T06:51:04;22.00;99.90
67379;DHT22;54262;44.642;-0.974;2023-06-26T06:53:30;21.90;99.90
67379;DHT22;54262;44.642;-0.974;2023-06-26T06:55:56;22.00;99.90
67379;DHT22;54262;44.642;-0.974;2023-06-26T06:58:22;22.90;99.90
67379;DHT22;54262;44.642;-0.974;2023-06-26T07:00:48;23.60;99.90
67379;DHT22;54262;44.642;-0.974;2023-06-26T07:03:14;23.20;99.90
67379;DHT22;54262;44.642;-0.974;2023-06-26T07:05:43;22.40;99.90
67379;DHT22;54262;44.642;-0.974;2023-06-26T07:08:09;21.80;99.90
67379;DHT22;54262;44.642;-0.974;2023-06-26T07:10:35;21.60;99.90
67379;DHT22;54262;44.642;-0.974;2023-06-26T07:13:01;21.70;99.90
67379;DHT22;54262;44.642;-0.974;2023-06-26T07:15:27;21.30;99.90
67379;DHT22;54262;44.642;-0.974;2023-06-26T07:17:54;21.10;99.90
67379;DHT22;54262;44.642;-0.974;2023-06-26T07:20:20;21.20;99.90
67379;DHT22;54262;44.642;-0.974;2023-06-26T07:22:45;21.00;99.90
67379;DHT22;54262;44.642;-0.974;2023-06-26T07:25:11;21.30;99.90
67379;DHT22;54262;44.642;-0.974;2023-06-26T07:27:37;21.20;99.90
67379;DHT22;54262;44.642;-0.974;2023-06-26T07:30:03;21.10;99.90
67379;DHT22;54262;44.642;-0.974;2023-06-26T07:32:29;20.90;99.90
67379;DHT22;54262;44.642;-0.974;2023-06-26T07:34:55;21.10;99.90
67379;DHT22;54262;44.642;-0.974;2023-06-26T07:37:23;21.40;99.90
67379;DHT22;54262;44.642;-0.974;2023-06-26T07:39:51;21.70;99.90
67379;DHT22;54262;44.642;-0.974;2023-06-26T07:42:16;21.70;99.90
67379;DHT22;54262;44.642;-0.974;2023-06-26T07:44:42;21.10;99.90
67379;DHT22;54262;44.642;-0.974;2023-06-26T07:47:08;21.30;99.90
67379;DHT22;54262;44.642;-0.974;2023-06-26T07:49:34;21.40;99.90
67379;DHT22;54262;44.642;-0.974;2023-06-26T07:52:00;21.40;99.90
67379;DHT22;54262;44.642;-0.974;2023-06-26T07:54:26;21.60;99.90
67379;DHT22;54262;44.642;-0.974;2023-06-26T07:56:56;21.40;99.90
67379;DHT22;54262;44.642;-0.974;2023-06-26T07:59:22;21.60;99.90
67379;DHT22;54262;44.642;-0.974;2023-06-26T08:01:51;21.50;99.90
67379;DHT22;54262;44.642;-0.974;2023-06-26T08:04:18;21.80;99.90
67379;DHT22;54262;44.642;-0.974;2023-06-26T08:06:47;22.00;99.90
67379;DHT22;54262;44.642;-0.974;2023-06-26T08:09:13;22.60;99.90
67379;DHT22;54262;44.642;-0.974;2023-06-26T08:11:38;22.90;99.90
67379;DHT22;54262;44.642;-0.974;2023-06-26T08:14:04;22.90;99.90
67379;DHT22;54262;44.642;-0.974;2023-06-26T08:16:30;22.80;99.90
67379;DHT22;54262;44.642;-0.974;2023-06-26T08:18:56;23.30;99.90
67379;DHT22;54262;44.642;-0.974;2023-06-26T08:21:21;23.20;99.90
67379;DHT22;54262;44.642;-0.974;2023-06-26T08:23:47;23.20;99.90
67379;DHT22;54262;44.642;-0.974;2023-06-26T08:26:13;23.40;99.90
67379;DHT22;54262;44.642;-0.974;2023-06-26T08:28:39;23.00;99.90
67379;DHT22;54262;44.642;-0.974;2023-06-26T08:31:05;23.20;99.90
67379;DHT22;54262;44.642;-0.974;2023-06-26T08:33:30;23.10;99.90
67379;DHT22;54262;44.642;-0.974;2023-06-26T08:35:56;23.50;99.90
67379;DHT22;54262;44.642;-0.974;2023-06-26T08:38:24;23.90;99.90
67379;DHT22;54262;44.642;-0.974;2023-06-26T08:40:52;24.00;99.90
67379;DHT22;54262;44.642;-0.974;2023-06-26T08:43:17;24.50;99.90
67379;DHT22;54262;44.642;-0.974;2023-06-26T08:45:44;23.80;99.90
67379;DHT22;54262;44.642;-0.974;2023-06-26T08:48:12;23.70;99.90
67379;DHT22;54262;44.642;-0.974;2023-06-26T08:50:38;24.00;99.90
67379;DHT22;54262;44.642;-0.974;2023-06-26T08:55:40;24.50;99.90
67379;DHT22;54262;44.642;-0.974;2023-06-26T08:58:06;24.40;99.90
67379;DHT22;54262;44.642;-0.974;2023-06-26T09:00:32;24.40;99.90
67379;DHT22;54262;44.642;-0.974;2023-06-26T09:02:59;24.50;99.90
67379;DHT22;54262;44.642;-0.974;2023-06-26T09:05:26;24.50;99.90
67379;DHT22;54262;44.642;-0.974;2023-06-26T09:07:52;24.30;99.90
67379;DHT22;54262;44.642;-0.974;2023-06-26T09:10:21;24.30;99.90
67379;DHT22;54262;44.642;-0.974;2023-06-26T09:12:47;24.60;99.90
67379;DHT22;54262;44.642;-0.974;2023-06-26T09:15:19;24.20;99.90
67379;DHT22;54262;44.642;-0.974;2023-06-26T09:17:45;24.50;99.90
67379;DHT22;54262;44.642;-0.974;2023-06-26T09:20:12;24.70;99.90
67379;DHT22;54262;44.642;-0.974;2023-06-26T09:22:42;24.50;99.90
67379;DHT22;54262;44.642;-0.974;2023-06-26T09:25:09;24.90;99.90
67379;DHT22;54262;44.642;-0.974;2023-06-26T09:27:35;24.80;99.90
67379;DHT22;54262;44.642;-0.974;2023-06-26T09:30:05;24.80;99.90
67379;DHT22;54262;44.642;-0.974;2023-06-26T09:32:37;24.60;95.30
67379;DHT22;54262;44.642;-0.974;2023-06-26T09:35:04;24.40;94.30
67379;DHT22;54262;44.642;-0.974;2023-06-26T09:37:30;24.70;99.40
67379;DHT22;54262;44.642;-0.974;2023-06-26T09:39:58;25.00;99.90
67379;DHT22;54262;44.642;-0.974;2023-06-26T09:42:26;25.20;93.70
67379;DHT22;54262;44.642;-0.974;2023-06-26T09:44:51;25.00;99.90
67379;DHT22;54262;44.642;-0.974;2023-06-26T09:47:18;24.90;99.90
67379;DHT22;54262;44.642;-0.974;2023-06-26T09:49:44;25.00;99.90
67379;DHT22;54262;44.642;-0.974;2023-06-26T09:52:16;24.80;99.90
67379;DHT22;54262;44.642;-0.974;2023-06-26T09:54:43;24.90;96.20
67379;DHT22;54262;44.642;-0.974;2023-06-26T09:57:18;25.10;96.70
67379;DHT22;54262;44.642;-0.974;2023-06-26T09:59:45;25.10;98.40
67379;DHT22;54262;44.642;-0.974;2023-06-26T10:02:11;25.20;95.30
67379;DHT22;54262;44.642;-0.974;2023-06-26T10:04:38;25.50;94.40
67379;DHT22;54262;44.642;-0.974;2023-06-26T10:07:10;25.10;85.40
67379;DHT22;54262;44.642;-0.974;2023-06-26T10:09:41;24.80;83.50
67379;DHT22;54262;44.642;-0.974;2023-06-26T10:14:41;25.20;81.40
67379;DHT22;54262;44.642;-0.974;2023-06-26T10:17:11;25.30;81.80
67379;DHT22;54262;44.642;-0.974;2023-06-26T10:19:41;25.50;77.70
67379;DHT22;54262;44.642;-0.974;2023-06-26T10:22:09;25.60;91.70
67379;DHT22;54262;44.642;-0.974;2023-06-26T10:24:37;25.60;91.20
67379;DHT22;54262;44.642;-0.974;2023-06-26T10:27:19;25.00;79.00
67379;DHT22;54262;44.642;-0.974;2023-06-26T10:29:57;25.00;87.80
67379;DHT22;54262;44.642;-0.974;2023-06-26T10:32:26;25.50;91.00
67379;DHT22;54262;44.642;-0.974;2023-06-26T10:34:53;25.70;90.80
67379;DHT22;54262;44.642;-0.974;2023-06-26T10:37:20;25.70;91.20
67379;DHT22;54262;44.642;-0.974;2023-06-26T10:39:49;25.70;90.70
67379;DHT22;54262;44.642;-0.974;2023-06-26T10:42:18;25.80;91.40
67379;DHT22;54262;44.642;-0.974;2023-06-26T10:44:47;25.80;90.70
67379;DHT22;54262;44.642;-0.974;2023-06-26T10:47:46;25.80;90.30
67379;DHT22;54262;44.642;-0.974;2023-06-26T10:50:28;25.80;88.70
67379;DHT22;54262;44.642;-0.974;2023-06-26T10:56:05;26.10;87.10
67379;DHT22;54262;44.642;-0.974;2023-06-26T11:03:38;26.40;82.60
67379;DHT22;54262;44.642;-0.974;2023-06-26T11:06:11;26.30;85.70
67379;DHT22;54262;44.642;-0.974;2023-06-26T11:11:12;26.30;83.70
67379;DHT22;54262;44.642;-0.974;2023-06-26T11:13:42;26.50;81.50
67379;DHT22;54262;44.642;-0.974;2023-06-26T11:16:11;26.40;85.20
67379;DHT22;54262;44.642;-0.974;2023-06-26T11:18:38;26.50;82.40
67379;DHT22;54262;44.642;-0.974;2023-06-26T11:21:11;26.50;83.30
67379;DHT22;54262;44.642;-0.974;2023-06-26T11:23:45;26.50;85.40
67379;DHT22;54262;44.642;-0.974;2023-06-26T11:26:19;26.70;84.30
67379;DHT22;54262;44.642;-0.974;2023-06-26T11:28:49;26.80;82.00
67379;DHT22;54262;44.642;-0.974;2023-06-26T11:31:34;26.90;81.90
67379;DHT22;54262;44.642;-0.974;2023-06-26T11:34:09;26.80;81.90
67379;DHT22;54262;44.642;-0.974;2023-06-26T11:36:41;26.90;82.50
67379;DHT22;54262;44.642;-0.974;2023-06-26T11:39:08;26.90;82.20
67379;DHT22;54262;44.642;-0.974;2023-06-26T11:41:37;27.00;81.40
67379;DHT22;54262;44.642;-0.974;2023-06-26T11:44:06;27.00;77.90
67379;DHT22;54262;44.642;-0.974;2023-06-26T11:46:35;27.00;78.30
67379;DHT22;54262;44.642;-0.974;2023-06-26T11:49:05;26.90;82.40
67379;DHT22;54262;44.642;-0.974;2023-06-26T11:51:32;26.90;80.80
67379;DHT22;54262;44.642;-0.974;2023-06-26T11:54:00;27.00;80.10
67379;DHT22;54262;44.642;-0.974;2023-06-26T11:56:26;26.80;81.80
67379;DHT22;54262;44.642;-0.974;2023-06-26T12:01:39;27.00;80.00
67379;DHT22;54262;44.642;-0.974;2023-06-26T12:04:07;26.70;76.10
67379;DHT22;54262;44.642;-0.974;2023-06-26T12:06:34;26.90;80.20
67379;DHT22;54262;44.642;-0.974;2023-06-26T12:09:19;26.80;81.10
67379;DHT22;54262;44.642;-0.974;2023-06-26T12:11:48;26.90;78.30
67379;DHT22;54262;44.642;-0.974;2023-06-26T12:14:14;27.00;79.50
67379;DHT22;54262;44.642;-0.974;2023-06-26T12:16:40;26.90;78.50
67379;DHT22;54262;44.642;-0.974;2023-06-26T12:19:07;26.90;81.60
67379;DHT22;54262;44.642;-0.974;2023-06-26T12:24:00;26.90;79.10
67379;DHT22;54262;44.642;-0.974;2023-06-26T12:26:27;27.00;79.90
67379;DHT22;54262;44.642;-0.974;2023-06-26T12:29:15;27.00;79.50
67379;DHT22;54262;44.642;-0.974;2023-06-26T12:31:45;27.00;79.10
67379;DHT22;54262;44.642;-0.974;2023-06-26T12:34:13;27.00;79.10
67379;DHT22;54262;44.642;-0.974;2023-06-26T12:36:43;27.00;78.30
67379;DHT22;54262;44.642;-0.974;2023-06-26T12:39:11;27.10;77.30
67379;DHT22;54262;44.642;-0.974;2023-06-26T12:42:03;27.10;77.20
67379;DHT22;54262;44.642;-0.974;2023-06-26T12:44:32;27.20;75.60
67379;DHT22;54262;44.642;-0.974;2023-06-26T12:47:01;27.10;77.00
67379;DHT22;54262;44.642;-0.974;2023-06-26T12:49:43;27.20;76.70
67379;DHT22;54262;44.642;-0.974;2023-06-26T12:52:13;27.20;75.80
67379;DHT22;54262;44.642;-0.974;2023-06-26T12:54:41;27.30;75.30
67379;DHT22;54262;44.642;-0.974;2023-06-26T12:57:07;27.30;74.70
67379;DHT22;54262;44.642;-0.974;2023-06-26T12:59:35;27.20;74.90
67379;DHT22;54262;44.642;-0.974;2023-06-26T13:02:01;27.20;72.70
67379;DHT22;54262;44.642;-0.974;2023-06-26T13:04:27;27.20;75.90
67379;DHT22;54262;44.642;-0.974;2023-06-26T13:06:53;27.50;74.60
67379;DHT22;54262;44.642;-0.974;2023-06-26T13:09:21;27.50;73.80
67379;DHT22;54262;44.642;-0.974;2023-06-26T13:11:47;27.40;73.80
67379;DHT22;54262;44.642;-0.974;2023-06-26T13:14:13;27.50;73.10
67379;DHT22;54262;44.642;-0.974;2023-06-26T13:16:39;27.60;72.20
67379;DHT22;54262;44.642;-0.974;2023-06-26T13:19:05;27.80;70.50
67379;DHT22;54262;44.642;-0.974;2023-06-26T13:21:31;27.80;69.30
67379;DHT22;54262;44.642;-0.974;2023-06-26T13:23:57;27.70;70.70
67379;DHT22;54262;44.642;-0.974;2023-06-26T13:26:24;27.80;70.90
67379;DHT22;54262;44.642;-0.974;2023-06-26T13:28:52;27.90;69.30
67379;DHT22;54262;44.642;-0.974;2023-06-26T13:31:17;27.90;69.70
67379;DHT22;54262;44.642;-0.974;2023-06-26T13:33:44;27.90;67.20
67379;DHT22;54262;44.642;-0.974;2023-06-26T13:36:10;27.90;65.70
67379;DHT22;54262;44.642;-0.974;2023-06-26T13:38:36;27.90;67.30
67379;DHT22;54262;44.642;-0.974;2023-06-26T13:41:02;27.90;70.00
67379;DHT22;54262;44.642;-0.974;2023-06-26T13:43:28;27.80;67.40
67379;DHT22;54262;44.642;-0.974;2023-06-26T13:45:57;27.90;66.00
67379;DHT22;54262;44.642;-0.974;2023-06-26T13:48:25;28.00;66.10
67379;DHT22;54262;44.642;-0.974;2023-06-26T13:50:51;27.90;64.50
67379;DHT22;54262;44.642;-0.974;2023-06-26T13:53:17;27.90;68.30
67379;DHT22;54262;44.642;-0.974;2023-06-26T13:55:43;27.80;63.00
67379;DHT22;54262;44.642;-0.974;2023-06-26T13:58:11;27.70;64.90
67379;DHT22;54262;44.642;-0.974;2023-06-26T14:00:39;27.70;62.90
67379;DHT22;54262;44.642;-0.974;2023-06-26T14:03:05;27.80;66.20
67379;DHT22;54262;44.642;-0.974;2023-06-26T14:05:36;27.50;65.40
67379;DHT22;54262;44.642;-0.974;2023-06-26T14:08:08;27.80;64.10
67379;DHT22;54262;44.642;-0.974;2023-06-26T14:10:34;27.90;63.90
67379;DHT22;54262;44.642;-0.974;2023-06-26T14:13:00;27.80;65.60
67379;DHT22;54262;44.642;-0.974;2023-06-26T14:15:26;27.90;66.20
67379;DHT22;54262;44.642;-0.974;2023-06-26T14:17:53;27.70;62.70
67379;DHT22;54262;44.642;-0.974;2023-06-26T14:20:21;27.60;66.10
67379;DHT22;54262;44.642;-0.974;2023-06-26T14:22:48;27.80;64.80
67379;DHT22;54262;44.642;-0.974;2023-06-26T14:25:15;27.80;60.90
67379;DHT22;54262;44.642;-0.974;2023-06-26T14:27:41;27.40;62.60
67379;DHT22;54262;44.642;-0.974;2023-06-26T14:30:08;27.60;63.50
67379;DHT22;54262;44.642;-0.974;2023-06-26T14:32:36;27.00;63.70
67379;DHT22;54262;44.642;-0.974;2023-06-26T14:35:02;27.60;66.10
67379;DHT22;54262;44.642;-0.974;2023-06-26T14:37:29;27.90;64.20
67379;DHT22;54262;44.642;-0.974;2023-06-26T14:39:56;27.70;61.80
67379;DHT22;54262;44.642;-0.974;2023-06-26T14:42:22;28.00;63.80
67379;DHT22;54262;44.642;-0.974;2023-06-26T14:44:48;28.10;60.50
67379;DHT22;54262;44.642;-0.974;2023-06-26T14:47:18;27.70;60.90
67379;DHT22;54262;44.642;-0.974;2023-06-26T14:49:46;27.80;61.60
67379;DHT22;54262;44.642;-0.974;2023-06-26T14:52:11;27.80;63.00
67379;DHT22;54262;44.642;-0.974;2023-06-26T14:54:37;27.40;65.10
67379;DHT22;54262;44.642;-0.974;2023-06-26T14:57:04;27.40;66.10
67379;DHT22;54262;44.642;-0.974;2023-06-26T14:59:30;27.70;61.10
67379;DHT22;54262;44.642;-0.974;2023-06-26T15:01:55;27.90;64.40
67379;DHT22;54262;44.642;-0.974;2023-06-26T15:04:21;28.10;61.80
67379;DHT22;54262;44.642;-0.974;2023-06-26T15:06:47;27.80;62.10
67379;DHT22;54262;44.642;-0.974;2023-06-26T15:09:12;27.90;65.00
67379;DHT22;54262;44.642;-0.974;2023-06-26T15:11:38;27.80;58.40
67379;DHT22;54262;44.642;-0.974;2023-06-26T15:14:04;27.70;60.90
67379;DHT22;54262;44.642;-0.974;2023-06-26T15:16:29;28.00;63.90
67379;DHT22;54262;44.642;-0.974;2023-06-26T15:18:55;28.10;63.70
67379;DHT22;54262;44.642;-0.974;2023-06-26T15:21:21;28.10;63.60
67379;DHT22;54262;44.642;-0.974;2023-06-26T15:23:47;28.30;62.00
67379;DHT22;54262;44.642;-0.974;2023-06-26T15:26:13;27.90;63.90
67379;DHT22;54262;44.642;-0.974;2023-06-26T15:28:41;27.50;60.90
67379;DHT22;54262;44.642;-0.974;2023-06-26T15:31:07;28.10;64.10
67379;DHT22;54262;44.642;-0.974;2023-06-26T15:33:33;28.00;61.00
67379;DHT22;54262;44.642;-0.974;2023-06-26T15:35:58;27.50;62.10
67379;DHT22;54262;44.642;-0.974;2023-06-26T15:38:24;28.20;64.30
67379;DHT22;54262;44.642;-0.974;2023-06-26T15:40:49;27.70;65.30
67379;DHT22;54262;44.642;-0.974;2023-06-26T15:43:15;27.50;61.60
67379;DHT22;54262;44.642;-0.974;2023-06-26T15:45:41;27.60;62.40
67379;DHT22;54262;44.642;-0.974;2023-06-26T15:48:09;28.10;64.70